createdAt,value
2022-08-31T00:01:02.058Z,17.60
2022-08-31T00:03:47.882Z,17.60
2022-08-31T00:06:17.517Z,17.60
2022-08-31T00:08:49.705Z,17.50
2022-08-31T00:11:27.949Z,17.50
2022-08-31T00:13:58.146Z,17.50
2022-08-31T00:16:27.096Z,17.50
2022-08-31T00:18:55.705Z,17.50
2022-08-31T00:21:26.438Z,17.50
2022-08-31T00:23:56.610Z,17.50
2022-08-31T00:26:25.745Z,17.50
2022-08-31T00:28:59.914Z,17.50
2022-08-31T00:31:28.561Z,17.40
2022-08-31T00:34:00.935Z,17.40
2022-08-31T00:36:29.548Z,17.40
2022-08-31T00:38:59.349Z,17.40
2022-08-31T00:41:38.914Z,17.30
2022-08-31T00:44:16.644Z,17.30
2022-08-31T00:46:46.003Z,17.30
2022-08-31T00:49:17.931Z,17.30
2022-08-31T00:51:50.508Z,17.30
2022-08-31T00:54:23.554Z,17.20
2022-08-31T00:56:52.849Z,17.20
2022-08-31T00:59:23.020Z,17.30
2022-08-31T01:01:51.587Z,17.30
2022-08-31T01:04:20.484Z,17.30
2022-08-31T01:06:50.564Z,17.30
2022-08-31T01:09:23.198Z,17.30
2022-08-31T01:11:52.074Z,17.30
2022-08-31T01:14:20.594Z,17.30
2022-08-31T01:16:51.553Z,17.30
2022-08-31T01:19:30.520Z,17.30
2022-08-31T01:22:05.612Z,17.30
2022-08-31T01:24:36.032Z,17.30
2022-08-31T01:27:07.942Z,17.30
2022-08-31T01:29:37.451Z,17.30
2022-08-31T01:32:09.231Z,17.30
2022-08-31T01:34:39.261Z,17.20
2022-08-31T01:37:08.094Z,17.20
2022-08-31T01:39:39.317Z,17.20
2022-08-31T01:42:10.203Z,17.20
2022-08-31T01:44:38.621Z,17.20
2022-08-31T01:47:07.259Z,17.30
2022-08-31T01:49:35.605Z,17.30
2022-08-31T01:52:04.907Z,17.30
2022-08-31T01:54:33.524Z,17.30
2022-08-31T01:57:03.249Z,17.30
2022-08-31T01:59:32.157Z,17.20
2022-08-31T02:02:00.693Z,17.20
2022-08-31T02:04:30.079Z,17.20
2022-08-31T02:07:01.165Z,17.20
2022-08-31T02:09:30.314Z,17.10
2022-08-31T02:11:58.577Z,17.10
2022-08-31T02:14:28.609Z,17.20
2022-08-31T02:16:57.050Z,17.20
2022-08-31T02:19:25.357Z,17.10
2022-08-31T02:21:53.721Z,17.10
2022-08-31T02:24:21.929Z,17.20
2022-08-31T02:26:53.655Z,17.10
2022-08-31T02:29:22.621Z,17.20
2022-08-31T02:31:52.467Z,17.20
2022-08-31T02:34:21.079Z,17.20
2022-08-31T02:36:52.524Z,17.20
2022-08-31T02:39:20.986Z,17.10
2022-08-31T02:41:49.364Z,17.10
2022-08-31T02:44:17.775Z,17.00
2022-08-31T02:46:46.364Z,17.00
2022-08-31T02:49:16.158Z,17.00
2022-08-31T02:51:45.402Z,17.00
2022-08-31T02:54:14.478Z,16.80
2022-08-31T02:56:43.088Z,16.90
2022-08-31T02:59:11.552Z,16.90
2022-08-31T03:01:40.148Z,16.80
2022-08-31T03:04:08.509Z,16.80
2022-08-31T03:06:38.322Z,16.80
2022-08-31T03:09:06.879Z,16.70
2022-08-31T03:11:35.193Z,16.60
2022-08-31T03:14:03.679Z,16.60
2022-08-31T03:16:32.813Z,16.60
2022-08-31T03:19:01.116Z,16.60
2022-08-31T03:21:30.012Z,16.60
2022-08-31T03:23:59.787Z,16.60
2022-08-31T03:26:28.154Z,16.60
2022-08-31T03:28:56.569Z,16.60
2022-08-31T03:31:25.023Z,16.60
2022-08-31T03:33:53.268Z,16.60
2022-08-31T03:36:21.744Z,16.60
2022-08-31T03:49:12.582Z,16.60
2022-08-31T03:51:40.866Z,16.60
2022-08-31T03:54:09.213Z,16.70
2022-08-31T03:56:37.851Z,16.70
2022-08-31T03:59:07.852Z,16.70
2022-08-31T04:01:37.554Z,16.70
2022-08-31T04:04:07.819Z,16.60
2022-08-31T04:06:37.715Z,16.50
2022-08-31T04:09:06.215Z,16.50
2022-08-31T04:11:44.209Z,16.60
2022-08-31T04:14:28.834Z,16.50
2022-08-31T04:20:30.156Z,16.60
2022-08-31T04:23:02.693Z,16.60
2022-08-31T04:25:31.433Z,16.60
2022-08-31T04:28:04.117Z,16.50
2022-08-31T04:30:32.878Z,16.40
2022-08-31T04:33:02.498Z,16.30
2022-08-31T04:35:32.101Z,16.30
2022-08-31T04:38:50.601Z,16.30
2022-08-31T04:41:30.569Z,16.40
2022-08-31T04:44:01.525Z,16.40
2022-08-31T04:46:32.950Z,16.30
2022-08-31T04:49:01.559Z,16.40
2022-08-31T04:51:31.757Z,16.30
2022-08-31T04:54:03.430Z,16.30
2022-08-31T04:56:36.718Z,16.40
2022-08-31T04:59:07.654Z,16.40
2022-08-31T05:01:42.785Z,16.30
2022-08-31T05:04:14.116Z,16.20
2022-08-31T05:06:45.243Z,16.20
2022-08-31T05:09:21.638Z,16.20
2022-08-31T05:11:51.369Z,16.20
2022-08-31T05:14:22.178Z,16.20
2022-08-31T05:16:50.682Z,16.20
2022-08-31T05:19:20.328Z,16.20
2022-08-31T05:21:49.391Z,16.20
2022-08-31T05:28:13.997Z,16.40
2022-08-31T05:30:45.139Z,16.40
2022-08-31T05:33:51.081Z,16.50
2022-08-31T05:42:25.285Z,16.60
2022-08-31T05:44:56.135Z,16.60
2022-08-31T05:54:24.890Z,16.90
2022-08-31T05:57:07.072Z,16.80
2022-08-31T05:59:59.134Z,16.80
2022-08-31T06:02:30.394Z,16.80
2022-08-31T06:04:58.800Z,16.90
2022-08-31T06:08:06.182Z,16.80
2022-08-31T06:14:07.534Z,16.80
2022-08-31T06:16:37.412Z,16.90
2022-08-31T06:19:07.315Z,17.00
2022-08-31T06:21:49.290Z,17.00
2022-08-31T06:24:19.146Z,17.20
2022-08-31T06:26:58.923Z,17.20
2022-08-31T06:29:57.799Z,17.20
2022-08-31T06:32:26.352Z,17.20
2022-08-31T06:35:35.140Z,17.20
2022-08-31T06:41:33.226Z,17.10
2022-08-31T06:51:16.594Z,17.20
2022-08-31T06:53:53.210Z,17.20
2022-08-31T07:03:27.317Z,17.20
2022-08-31T07:05:57.255Z,17.20
2022-08-31T07:08:30.429Z,17.10
2022-08-31T07:10:59.466Z,17.10
2022-08-31T07:13:28.199Z,17.00
2022-08-31T07:16:06.093Z,17.00
2022-08-31T07:18:35.997Z,17.00
2022-08-31T07:21:09.835Z,17.10
2022-08-31T07:24:25.245Z,17.10
2022-08-31T07:27:35.510Z,17.20
2022-08-31T07:30:38.786Z,17.20
2022-08-31T07:33:22.553Z,17.20
2022-08-31T07:36:17.555Z,17.20
2022-08-31T07:42:06.288Z,17.50
2022-08-31T07:44:36.300Z,17.60
2022-08-31T07:47:06.094Z,17.40
2022-08-31T07:53:03.433Z,17.50
2022-08-31T07:55:43.954Z,17.50
2022-08-31T07:58:28.766Z,17.70
2022-08-31T08:01:00.627Z,17.80
2022-08-31T08:03:34.895Z,17.80
2022-08-31T08:06:13.074Z,17.70
2022-08-31T08:08:44.108Z,17.70
2022-08-31T08:15:05.852Z,17.80
2022-08-31T08:17:39.126Z,18.00
2022-08-31T08:24:00.319Z,17.80
2022-08-31T08:26:28.865Z,17.80
2022-08-31T08:28:57.616Z,17.80
2022-08-31T08:31:33.807Z,17.90
2022-08-31T08:34:06.963Z,18.20
2022-08-31T08:36:44.471Z,18.30
2022-08-31T08:39:26.617Z,18.50
2022-08-31T08:41:58.047Z,18.70
2022-08-31T08:44:29.726Z,18.80
2022-08-31T08:47:01.719Z,18.60
2022-08-31T08:49:42.588Z,18.60
2022-08-31T08:52:22.676Z,18.50
2022-08-31T08:54:55.029Z,18.50
2022-08-31T08:57:27.475Z,18.80
2022-08-31T08:59:59.329Z,18.70
2022-08-31T09:02:36.439Z,19.10
2022-08-31T09:05:35.114Z,18.90
2022-08-31T09:12:14.955Z,18.70
2022-08-31T09:15:02.398Z,19.20
2022-08-31T09:21:26.580Z,19.00
2022-08-31T09:24:08.497Z,19.40
2022-08-31T09:27:25.823Z,19.50
2022-08-31T09:30:26.913Z,19.60
2022-08-31T09:32:59.050Z,19.50
2022-08-31T09:35:40.553Z,19.90
2022-08-31T09:38:14.348Z,19.90
2022-08-31T09:40:55.535Z,19.90
2022-08-31T09:43:48.721Z,20.20
2022-08-31T09:46:31.815Z,20.30
2022-08-31T09:49:03.454Z,20.30
2022-08-31T09:51:34.651Z,20.50
2022-08-31T09:54:25.993Z,20.10
2022-08-31T09:57:01.586Z,20.20
2022-08-31T09:59:42.076Z,20.90
2022-08-31T10:02:42.504Z,20.80
2022-08-31T10:05:47.322Z,21.10
2022-08-31T10:08:31.241Z,20.60
2022-08-31T10:11:46.034Z,21.20
2022-08-31T10:17:41.730Z,20.60
2022-08-31T10:21:05.452Z,21.10
2022-08-31T10:27:24.615Z,20.80
2022-08-31T10:30:27.279Z,20.30
2022-08-31T10:33:10.404Z,20.20
2022-08-31T10:36:20.749Z,21.10
2022-08-31T10:38:52.068Z,21.10
2022-08-31T10:41:26.567Z,20.90
2022-08-31T10:44:03.591Z,21.20
2022-08-31T10:46:35.752Z,20.80
2022-08-31T10:49:06.551Z,21.40
2022-08-31T10:51:44.996Z,21.60
2022-08-31T10:54:36.038Z,21.10
2022-08-31T10:57:22.512Z,21.70
2022-08-31T11:00:01.168Z,21.60
2022-08-31T11:09:34.174Z,22.00
2022-08-31T11:12:19.404Z,21.90
2022-08-31T11:15:15.335Z,22.10
2022-08-31T11:24:12.611Z,22.40
2022-08-31T11:26:54.797Z,22.10
2022-08-31T11:43:09.722Z,21.90
2022-08-31T11:53:01.970Z,22.70
2022-08-31T11:55:47.638Z,22.40
2022-08-31T11:58:57.673Z,22.40
2022-08-31T12:01:45.145Z,22.20
2022-08-31T12:04:52.398Z,22.20
2022-08-31T12:10:56.399Z,21.90
2022-08-31T12:13:39.790Z,21.80
2022-08-31T12:16:45.022Z,21.50
2022-08-31T12:20:08.299Z,21.50
2022-08-31T12:23:36.143Z,22.00
2022-08-31T12:26:24.764Z,21.80
2022-08-31T12:29:28.242Z,22.00
2022-08-31T12:33:07.134Z,22.10
2022-08-31T12:39:36.169Z,22.00
2022-08-31T12:42:07.930Z,22.00
2022-08-31T12:44:46.141Z,21.90
2022-08-31T12:47:26.335Z,21.80
2022-08-31T12:50:06.841Z,22.20
2022-08-31T12:53:07.329Z,21.90
2022-08-31T12:55:50.970Z,22.30
2022-08-31T12:58:57.847Z,21.80
2022-08-31T13:01:55.607Z,21.70
2022-08-31T13:04:31.789Z,22.00
2022-08-31T13:07:24.017Z,21.90
2022-08-31T13:13:42.687Z,21.40
2022-08-31T13:16:13.783Z,21.70
2022-08-31T13:19:28.175Z,21.70
2022-08-31T13:22:11.845Z,21.70
2022-08-31T13:24:54.084Z,21.50
2022-08-31T13:27:26.631Z,21.70
2022-08-31T13:30:11.184Z,21.60
2022-08-31T13:32:45.007Z,21.90
2022-08-31T13:35:19.173Z,21.70
2022-08-31T13:38:06.171Z,21.30
2022-08-31T13:40:37.774Z,22.00
2022-08-31T13:43:29.050Z,22.00
2022-08-31T13:46:13.387Z,22.10
2022-08-31T13:48:58.745Z,21.90
2022-08-31T13:51:38.450Z,21.70
2022-08-31T13:54:12.032Z,21.90
2022-08-31T13:57:14.846Z,21.90
2022-08-31T14:00:16.678Z,21.60
2022-08-31T14:02:55.988Z,21.30
2022-08-31T14:05:39.483Z,21.20
2022-08-31T14:08:12.429Z,21.70
2022-08-31T14:14:09.244Z,21.80
2022-08-31T14:16:51.976Z,21.90
2022-08-31T14:19:42.246Z,21.90
2022-08-31T14:22:52.714Z,22.00
2022-08-31T14:25:59.829Z,22.20
2022-08-31T14:28:53.835Z,22.20
2022-08-31T14:38:34.997Z,22.00
2022-08-31T14:54:09.799Z,22.50
2022-08-31T14:56:56.042Z,22.60
2022-08-31T14:59:25.571Z,22.10
2022-08-31T15:02:05.856Z,21.90
2022-08-31T15:05:00.585Z,21.80
2022-08-31T15:07:55.740Z,22.30
2022-08-31T15:13:55.840Z,21.50
2022-08-31T15:20:08.856Z,21.40
2022-08-31T15:23:04.674Z,22.10
2022-08-31T15:25:36.650Z,22.10
2022-08-31T15:28:13.555Z,22.50
2022-08-31T15:35:19.352Z,22.00
2022-08-31T15:38:18.563Z,21.60
2022-08-31T15:41:02.192Z,22.20
2022-08-31T15:43:33.580Z,22.20
2022-08-31T15:46:25.842Z,22.20
2022-08-31T15:49:02.840Z,22.00
2022-08-31T15:51:36.250Z,21.80
2022-08-31T15:54:21.735Z,21.30
2022-08-31T16:00:30.489Z,21.10
2022-08-31T16:03:05.256Z,21.50
2022-08-31T16:05:47.942Z,21.40
2022-08-31T16:08:37.954Z,21.60
2022-08-31T16:11:38.124Z,21.70
2022-08-31T16:14:25.972Z,21.50
2022-08-31T16:20:22.095Z,21.50
2022-08-31T16:23:09.782Z,21.40
2022-08-31T16:26:25.526Z,21.10
2022-08-31T16:29:10.175Z,21.00
2022-08-31T16:32:06.536Z,21.10
2022-08-31T16:35:06.777Z,21.30
2022-08-31T16:38:01.342Z,21.30
2022-08-31T16:40:32.959Z,20.90
2022-08-31T16:43:03.481Z,21.00
2022-08-31T16:49:17.547Z,21.00
2022-08-31T16:52:12.611Z,21.10
2022-08-31T16:54:59.767Z,21.00
2022-08-31T17:00:45.213Z,20.90
2022-08-31T17:03:18.987Z,20.80
2022-08-31T17:05:57.316Z,21.10
2022-08-31T17:08:48.287Z,20.90
2022-08-31T17:11:37.603Z,20.90
2022-08-31T17:14:09.067Z,20.80
2022-08-31T17:16:43.632Z,20.80
2022-08-31T17:19:16.294Z,20.90
2022-08-31T17:29:01.140Z,20.60
2022-08-31T17:31:43.453Z,20.80
2022-08-31T17:34:26.224Z,20.60
2022-08-31T17:37:26.342Z,20.70
2022-08-31T17:42:48.620Z,20.60
2022-08-31T17:45:17.833Z,20.50
2022-08-31T17:54:36.006Z,20.30
2022-08-31T17:57:05.873Z,20.30
2022-08-31T17:59:49.817Z,20.20
2022-08-31T18:02:23.356Z,20.10
2022-08-31T18:04:58.028Z,20.10
2022-08-31T18:07:30.580Z,20.00
2022-08-31T18:10:03.792Z,20.00
2022-08-31T18:12:41.473Z,19.90
2022-08-31T18:15:21.012Z,19.80
2022-08-31T18:17:50.733Z,19.70
2022-08-31T18:20:20.144Z,19.70
2022-08-31T18:22:52.218Z,19.70
2022-08-31T18:26:13.719Z,19.70
2022-08-31T18:28:43.768Z,19.50
2022-08-31T18:31:15.869Z,19.40
2022-08-31T18:36:38.582Z,19.30
2022-08-31T18:39:09.607Z,19.30
2022-08-31T18:42:15.130Z,19.30
2022-08-31T18:45:31.696Z,19.20
2022-08-31T18:48:24.328Z,19.30
2022-08-31T18:51:19.661Z,19.10
2022-08-31T18:58:08.491Z,18.90
2022-08-31T19:00:44.915Z,18.80
2022-08-31T19:03:32.322Z,18.80
2022-08-31T19:06:35.020Z,18.70
2022-08-31T19:09:58.097Z,18.70
2022-08-31T19:12:36.657Z,18.70
2022-08-31T19:15:36.068Z,18.60
2022-08-31T19:18:13.212Z,18.60
2022-08-31T19:21:25.884Z,18.50
2022-08-31T19:24:05.131Z,18.50
2022-08-31T19:26:40.161Z,18.40
2022-08-31T19:29:28.770Z,18.40
2022-08-31T19:32:02.245Z,18.40
2022-08-31T19:34:44.098Z,18.40
2022-08-31T19:37:16.800Z,18.30
2022-08-31T19:39:47.066Z,18.30
2022-08-31T19:42:40.175Z,18.30
2022-08-31T19:45:41.028Z,18.20
2022-08-31T19:48:13.714Z,18.20
2022-08-31T19:50:46.221Z,18.10
2022-08-31T19:53:20.701Z,18.10
2022-08-31T19:55:55.696Z,18.00
2022-08-31T19:58:25.552Z,18.00
2022-08-31T20:03:27.525Z,18.00
2022-08-31T20:06:06.534Z,17.90
2022-08-31T20:08:38.349Z,17.90
2022-08-31T20:13:55.391Z,17.80
2022-08-31T20:16:33.704Z,17.80
2022-08-31T20:19:20.936Z,17.80
2022-08-31T20:22:18.696Z,17.70
2022-08-31T20:27:31.436Z,17.60
2022-08-31T20:30:04.397Z,17.50
2022-08-31T20:32:35.542Z,17.40
2022-08-31T20:35:04.575Z,17.30
2022-08-31T20:37:39.758Z,17.30
2022-08-31T20:47:30.237Z,17.20
2022-08-31T20:50:11.771Z,17.20
2022-08-31T20:52:45.271Z,17.10
2022-08-31T20:57:57.831Z,17.10
2022-08-31T21:04:11.966Z,16.90
2022-08-31T21:06:48.466Z,17.00
2022-08-31T21:09:42.466Z,16.90
2022-08-31T21:12:18.097Z,16.90
2022-08-31T21:14:53.043Z,16.80
2022-08-31T21:17:44.563Z,16.80
2022-08-31T21:20:20.809Z,16.80
2022-08-31T21:23:42.338Z,16.70
2022-08-31T21:27:08.249Z,16.70
2022-08-31T21:30:26.072Z,16.70
2022-08-31T21:32:56.042Z,16.60
2022-08-31T21:35:29.630Z,16.60
2022-08-31T21:38:02.146Z,16.50
2022-08-31T21:40:34.510Z,16.50
2022-08-31T21:43:08.044Z,16.50
2022-08-31T21:45:44.689Z,16.40
2022-08-31T21:48:54.834Z,16.40
2022-08-31T21:51:28.344Z,16.30
2022-08-31T21:54:11.014Z,16.10
2022-08-31T21:59:30.531Z,16.20
2022-08-31T22:02:06.462Z,16.10
2022-08-31T22:04:44.628Z,16.10
2022-08-31T22:10:04.876Z,15.90
2022-08-31T22:12:35.773Z,15.90
2022-08-31T22:15:10.228Z,15.90
2022-08-31T22:18:01.384Z,15.80
2022-08-31T22:20:40.376Z,15.80
2022-08-31T22:23:16.034Z,15.80
2022-08-31T22:25:46.697Z,15.70
2022-08-31T22:28:17.703Z,15.80
2022-08-31T22:30:46.505Z,15.90
2022-08-31T22:33:18.828Z,15.80
2022-08-31T22:35:47.160Z,15.40
2022-08-31T22:38:20.260Z,15.10
2022-08-31T22:40:51.917Z,15.00
2022-08-31T22:43:23.069Z,14.90
2022-08-31T22:45:52.529Z,14.80
2022-08-31T22:48:27.201Z,14.70
2022-08-31T22:51:16.005Z,14.70
2022-08-31T22:53:49.508Z,14.60
2022-08-31T22:56:27.035Z,14.60
2022-08-31T22:58:58.053Z,14.70
2022-08-31T23:01:40.907Z,14.70
2022-08-31T23:04:22.365Z,14.70
2022-08-31T23:06:55.664Z,14.70
2022-08-31T23:09:27.950Z,14.70
2022-08-31T23:12:00.465Z,14.60
2022-08-31T23:14:33.982Z,14.70
2022-08-31T23:17:10.783Z,14.70
2022-08-31T23:19:48.150Z,14.60
2022-08-31T23:22:24.501Z,14.60
2022-08-31T23:24:55.002Z,14.60
2022-08-31T23:27:26.195Z,14.60
2022-08-31T23:30:01.563Z,14.40
2022-08-31T23:32:37.871Z,14.40
2022-08-31T23:36:01.903Z,14.30
2022-08-31T23:39:00.842Z,14.10
2022-08-31T23:41:33.144Z,13.90
2022-08-31T23:44:15.933Z,14.00
2022-08-31T23:46:45.627Z,14.10
2022-08-31T23:49:19.127Z,14.20
2022-08-31T23:51:54.052Z,14.40
2022-08-31T23:54:25.084Z,14.30
2022-08-31T23:57:00.167Z,14.30
2022-08-31T23:59:31.728Z,14.20
